createdAt,value
2018-09-10T00:00:26.780Z,2.20
2018-09-10T00:02:56.256Z,2.50
2018-09-10T00:05:25.921Z,2.30
2018-09-10T00:07:56.474Z,2.80
2018-09-10T00:10:26.062Z,2.40
2018-09-10T00:12:55.635Z,2.40
2018-09-10T00:15:25.299Z,2.60
2018-09-10T00:17:54.693Z,2.50
2018-09-10T00:20:24.366Z,2.33
2018-09-10T00:22:53.969Z,2.50
2018-09-10T00:25:24.329Z,2.23
2018-09-10T00:27:53.903Z,2.70
2018-09-10T00:30:23.820Z,3.60
2018-09-10T00:32:53.132Z,3.00
2018-09-10T00:35:23.509Z,2.37
2018-09-10T00:37:53.470Z,2.30
2018-09-10T00:40:22.937Z,2.40
2018-09-10T00:42:52.362Z,2.80
2018-09-10T00:45:21.766Z,2.87
2018-09-10T00:47:51.110Z,2.27
2018-09-10T00:50:21.311Z,3.00
2018-09-10T00:52:51.306Z,2.53
2018-09-10T00:55:20.784Z,2.23
2018-09-10T00:57:52.440Z,2.70
2018-09-10T01:00:22.074Z,2.57
2018-09-10T01:02:51.799Z,2.23
2018-09-10T01:05:21.531Z,2.70
2018-09-10T01:07:51.020Z,2.70
2018-09-10T01:10:20.516Z,2.20
2018-09-10T01:12:49.908Z,2.30
2018-09-10T01:15:19.271Z,3.53
2018-09-10T01:17:48.542Z,2.93
2018-09-10T01:20:17.884Z,3.07
2018-09-10T01:22:48.146Z,3.03
2018-09-10T01:25:18.136Z,2.47
2018-09-10T01:27:47.665Z,2.33
2018-09-10T01:30:17.611Z,2.70
2018-09-10T01:32:47.928Z,3.30
2018-09-10T01:35:17.127Z,2.80
2018-09-10T01:37:46.492Z,2.40
2018-09-10T01:40:16.326Z,2.60
2018-09-10T01:42:45.605Z,2.57
2018-09-10T01:45:14.836Z,2.63
2018-09-10T01:47:44.203Z,2.60
2018-09-10T01:50:13.449Z,2.73
2018-09-10T01:52:42.705Z,3.00
2018-09-10T01:55:12.210Z,2.37
2018-09-10T01:57:41.468Z,2.70
2018-09-10T02:00:10.777Z,2.67
2018-09-10T02:02:40.069Z,2.90
2018-09-10T02:05:09.362Z,2.23
2018-09-10T02:07:38.797Z,3.00
2018-09-10T02:10:08.111Z,2.70
2018-09-10T02:12:37.473Z,2.80
2018-09-10T02:15:08.010Z,2.90
2018-09-10T02:17:37.387Z,2.40
2018-09-10T02:20:06.763Z,2.63
2018-09-10T02:22:36.107Z,2.50
2018-09-10T02:25:05.380Z,2.73
2018-09-10T02:27:34.825Z,3.07
2018-09-10T02:30:04.466Z,2.53
2018-09-10T02:32:33.919Z,2.83
2018-09-10T02:35:03.224Z,2.90
2018-09-10T02:37:32.554Z,2.97
2018-09-10T02:40:02.131Z,2.40
2018-09-10T02:42:31.587Z,2.97
2018-09-10T02:45:00.972Z,3.07
2018-09-10T02:47:30.475Z,3.17
2018-09-10T02:49:59.908Z,2.80
2018-09-10T02:52:29.606Z,2.40
2018-09-10T02:54:58.987Z,3.20
2018-09-10T02:57:28.416Z,2.63
2018-09-10T02:59:57.872Z,3.07
2018-09-10T03:02:27.277Z,2.90
2018-09-10T03:04:56.702Z,2.70
2018-09-10T03:07:26.186Z,2.77
2018-09-10T03:09:55.589Z,3.60
2018-09-10T03:12:25.090Z,3.30
2018-09-10T03:14:54.849Z,3.70
2018-09-10T03:17:24.349Z,3.20
2018-09-10T03:19:54.063Z,2.77
2018-09-10T03:22:23.751Z,3.30
2018-09-10T03:24:53.378Z,3.10
2018-09-10T03:27:23.069Z,2.90
2018-09-10T03:29:52.880Z,3.43
2018-09-10T03:32:22.462Z,3.43
2018-09-10T03:34:52.421Z,3.70
2018-09-10T03:37:22.247Z,4.03
2018-09-10T03:39:51.928Z,3.40
2018-09-10T03:42:21.423Z,3.60
2018-09-10T03:44:50.845Z,3.57
2018-09-10T03:47:20.360Z,3.90
2018-09-10T03:49:50.742Z,3.67
2018-09-10T03:52:20.248Z,3.50
2018-09-10T03:54:50.055Z,3.57
2018-09-10T03:57:19.375Z,3.73
2018-09-10T03:59:48.761Z,3.90
2018-09-10T04:02:18.103Z,3.60
2018-09-10T04:04:47.407Z,4.00
2018-09-10T04:07:16.761Z,3.03
2018-09-10T04:09:46.226Z,3.53
2018-09-10T04:12:15.670Z,4.57
2018-09-10T04:14:44.989Z,3.40
2018-09-10T04:17:14.445Z,3.13
2018-09-10T04:19:43.819Z,3.90
2018-09-10T04:22:13.145Z,3.23
2018-09-10T04:24:43.605Z,4.73
2018-09-10T04:27:12.850Z,4.33
2018-09-10T04:29:42.234Z,3.80
2018-09-10T04:32:11.596Z,3.27
2018-09-10T04:34:40.854Z,4.60
2018-09-10T04:37:10.185Z,4.10
2018-09-10T04:39:39.530Z,3.20
2018-09-10T04:42:08.791Z,4.00
2018-09-10T04:44:38.033Z,3.43
2018-09-10T04:47:08.434Z,3.70
2018-09-10T04:49:39.282Z,4.30
2018-09-10T04:52:08.462Z,4.20
2018-09-10T04:54:37.938Z,4.23
2018-09-10T04:57:07.214Z,3.37
2018-09-10T04:59:37.353Z,4.13
2018-09-10T05:02:06.843Z,4.00
2018-09-10T05:04:36.223Z,4.40
2018-09-10T05:07:05.524Z,5.23
2018-09-10T05:09:34.881Z,4.03
2018-09-10T05:12:04.255Z,4.60
2018-09-10T05:14:33.624Z,4.10
2018-09-10T05:17:03.479Z,4.50
2018-09-10T05:19:33.848Z,4.80
2018-09-10T05:22:03.234Z,4.70
2018-09-10T05:24:32.605Z,4.57
2018-09-10T05:27:01.905Z,4.40
2018-09-10T05:29:31.413Z,5.30
2018-09-10T05:32:00.991Z,3.87
2018-09-10T05:34:31.061Z,4.00
2018-09-10T05:37:00.436Z,4.50
2018-09-10T05:39:29.867Z,3.60
2018-09-10T05:41:59.759Z,4.40
2018-09-10T05:44:29.293Z,4.10
2018-09-10T05:46:58.941Z,4.10
2018-09-10T05:49:28.497Z,3.97
2018-09-10T05:51:58.115Z,5.17
2018-09-10T05:54:27.868Z,3.97
2018-09-10T05:56:57.465Z,4.77
2018-09-10T05:59:27.177Z,4.17
2018-09-10T06:01:56.637Z,4.83
2018-09-10T06:04:26.154Z,4.57
2018-09-10T06:06:55.593Z,4.60
2018-09-10T06:09:25.101Z,4.60
2018-09-10T06:11:54.582Z,4.77
2018-09-10T06:14:24.216Z,5.07
2018-09-10T06:16:53.897Z,4.80
2018-09-10T06:19:23.456Z,4.80
2018-09-10T06:21:52.886Z,5.07
2018-09-10T06:24:23.007Z,4.93
2018-09-10T06:26:52.597Z,4.60
2018-09-10T06:29:22.090Z,10.20
2018-09-10T06:31:51.699Z,5.10
2018-09-10T06:34:21.268Z,6.03
2018-09-10T06:36:50.868Z,5.80
2018-09-10T06:39:20.311Z,5.10
2018-09-10T06:41:49.818Z,5.53
2018-09-10T06:44:19.166Z,5.70
2018-09-10T06:46:48.929Z,5.50
2018-09-10T06:49:18.169Z,5.50
2018-09-10T06:51:47.438Z,5.23
2018-09-10T06:54:16.905Z,6.20
2018-09-10T06:56:46.305Z,6.23
2018-09-10T06:59:15.538Z,5.60
2018-09-10T07:01:44.933Z,6.70
2018-09-10T07:04:14.327Z,6.43
2018-09-10T07:06:43.613Z,6.13
2018-09-10T07:09:12.988Z,5.50
2018-09-10T07:11:45.418Z,6.73
2018-09-10T07:14:14.722Z,5.87
2018-09-10T07:16:44.217Z,6.50
2018-09-10T07:19:13.458Z,5.77
2018-09-10T07:21:43.575Z,6.73
2018-09-10T07:24:12.908Z,6.20
2018-09-10T07:26:42.229Z,6.60
2018-09-10T07:29:11.957Z,6.33
2018-09-10T07:31:41.342Z,7.43
2018-09-10T07:34:10.594Z,6.60
2018-09-10T07:36:39.909Z,6.60
2018-09-10T07:39:10.828Z,7.20
2018-09-10T07:41:40.093Z,7.17
2018-09-10T07:44:09.772Z,7.60
2018-09-10T07:46:39.441Z,7.57
2018-09-10T07:49:08.824Z,8.20
2018-09-10T07:51:38.345Z,7.30
2018-09-10T07:54:07.810Z,6.70
2018-09-10T07:56:37.202Z,7.07
2018-09-10T07:59:06.616Z,7.70
2018-09-10T08:01:35.955Z,8.10
2018-09-10T08:04:05.577Z,8.70
2018-09-10T08:06:35.251Z,8.47
2018-09-10T08:09:05.965Z,8.07
2018-09-10T08:11:35.196Z,9.37
2018-09-10T08:14:05.362Z,9.03
2018-09-10T08:16:34.890Z,10.53
2018-09-10T08:19:04.187Z,9.23
2018-09-10T08:21:33.792Z,9.90
2018-09-10T08:24:03.322Z,10.23
2018-09-10T08:26:32.931Z,10.93
2018-09-10T08:29:02.330Z,10.23
2018-09-10T08:31:31.774Z,10.80
2018-09-10T08:34:01.409Z,11.03
2018-09-10T08:36:30.985Z,9.67
2018-09-10T08:39:00.461Z,10.20
2018-09-10T08:41:30.211Z,9.57
2018-09-10T08:44:00.055Z,9.60
2018-09-10T08:46:29.652Z,10.10
2018-09-10T08:48:59.282Z,8.97
2018-09-10T08:51:29.007Z,8.37
2018-09-10T08:53:58.703Z,9.83
2018-09-10T08:56:28.421Z,8.10
2018-09-10T08:58:57.955Z,9.67
2018-09-10T09:01:27.635Z,8.30
2018-09-10T09:04:01.886Z,9.00
2018-09-10T09:06:37.837Z,7.60
2018-09-10T09:09:12.311Z,8.37
2018-09-10T09:11:46.143Z,9.20
2018-09-10T09:14:16.326Z,8.10
2018-09-10T09:16:51.317Z,6.83
2018-09-10T09:19:25.521Z,7.70
2018-09-10T09:21:59.788Z,6.37
2018-09-10T09:24:31.815Z,6.50
2018-09-10T09:27:06.643Z,7.17
2018-09-10T09:29:36.974Z,6.87
2018-09-10T09:32:11.142Z,7.27
2018-09-10T09:34:49.328Z,5.53
2018-09-10T09:37:25.720Z,6.80
2018-09-10T09:40:02.415Z,6.07
2018-09-10T09:42:40.481Z,6.07
2018-09-10T09:45:18.113Z,6.30
2018-09-10T09:47:52.409Z,6.07
2018-09-10T09:50:26.553Z,6.13
2018-09-10T09:52:59.825Z,5.30
2018-09-10T09:58:23.347Z,5.03
2018-09-10T10:01:01.464Z,5.23
2018-09-10T10:03:37.332Z,5.60
2018-09-10T10:06:08.915Z,4.90
2018-09-10T10:08:42.892Z,5.50
2018-09-10T10:11:13.220Z,5.90
2018-09-10T10:13:45.516Z,4.87
2018-09-10T10:16:17.817Z,5.07
2018-09-10T10:18:50.982Z,5.20
2018-09-10T10:21:26.856Z,5.67
2018-09-10T10:24:02.182Z,5.43
2018-09-10T10:26:36.516Z,5.50
2018-09-10T10:29:10.577Z,4.80
2018-09-10T10:31:43.593Z,5.40
2018-09-10T10:34:17.368Z,5.70
2018-09-10T10:36:51.393Z,4.77
2018-09-10T10:39:25.674Z,4.20
2018-09-10T10:42:00.024Z,4.97
2018-09-10T10:44:36.536Z,3.70
2018-09-10T10:47:10.122Z,5.20
2018-09-10T10:49:43.707Z,3.60
2018-09-10T10:52:17.195Z,3.57
2018-09-10T10:54:47.795Z,4.43
2018-09-10T10:57:21.354Z,2.90
2018-09-10T10:59:55.488Z,2.67
2018-09-10T11:02:29.903Z,2.50
2018-09-10T11:05:02.452Z,3.53
2018-09-10T11:07:36.628Z,2.77
2018-09-10T11:10:12.744Z,2.50
2018-09-10T11:12:46.575Z,3.07
2018-09-10T11:15:18.279Z,2.47
2018-09-10T11:17:53.864Z,2.73
2018-09-10T11:20:26.544Z,3.17
2018-09-10T11:22:58.440Z,3.03
2018-09-10T11:25:32.091Z,2.47
2018-09-10T11:28:05.922Z,2.97
2018-09-10T11:30:39.987Z,2.80
2018-09-10T11:33:14.119Z,2.37
2018-09-10T11:35:47.407Z,1.90
2018-09-10T11:38:43.535Z,1.93
2018-09-10T11:41:20.107Z,3.13
2018-09-10T11:43:55.378Z,2.53
2018-09-10T11:46:30.786Z,2.33
2018-09-10T11:49:06.127Z,3.00
2018-09-10T11:51:46.565Z,3.10
2018-09-10T11:54:21.489Z,2.20
2018-09-10T11:57:01.387Z,2.00
2018-09-10T11:59:32.634Z,2.53
2018-09-10T12:02:08.269Z,2.70
2018-09-10T12:04:43.074Z,2.50
2018-09-10T12:08:45.229Z,2.23
2018-09-10T12:11:19.436Z,2.27
2018-09-10T12:13:55.797Z,1.93
2018-09-10T12:16:30.061Z,2.20
2018-09-10T12:19:04.402Z,1.30
2018-09-10T12:21:39.882Z,2.33
2018-09-10T12:24:13.904Z,2.60
2018-09-10T12:26:51.595Z,2.40
2018-09-10T12:29:27.005Z,1.80
2018-09-10T12:32:02.493Z,2.93
2018-09-10T12:34:36.221Z,3.20
2018-09-10T12:37:07.420Z,2.23
2018-09-10T12:39:37.537Z,2.00
2018-09-10T12:42:10.341Z,2.57
2018-09-10T12:44:44.848Z,2.27
2018-09-10T12:47:19.288Z,1.77
2018-09-10T12:49:52.125Z,2.30
2018-09-10T12:52:21.771Z,1.87
2018-09-10T12:54:54.763Z,2.43
2018-09-10T12:57:27.889Z,2.87
2018-09-10T13:00:01.838Z,2.30
2018-09-10T13:02:32.933Z,2.50
2018-09-10T13:05:07.037Z,2.40
2018-09-10T13:07:40.956Z,1.83
2018-09-10T13:10:15.316Z,2.47
2018-09-10T13:12:45.613Z,2.43
2018-09-10T13:15:20.942Z,2.57
2018-09-10T13:17:51.062Z,2.20
2018-09-10T13:20:25.747Z,2.00
2018-09-10T13:22:58.486Z,2.50
2018-09-10T13:25:32.876Z,3.07
2018-09-10T13:28:05.619Z,2.07
2018-09-10T13:30:39.308Z,2.80
2018-09-10T13:33:10.602Z,2.47
2018-09-10T13:35:41.832Z,2.77
2018-09-10T13:38:12.178Z,2.77
2018-09-10T13:40:45.399Z,2.93
2018-09-10T13:43:18.624Z,2.47
2018-09-10T13:45:50.224Z,2.33
2018-09-10T13:48:23.504Z,2.33
2018-09-10T13:50:57.564Z,2.20
2018-09-10T13:53:29.214Z,2.40
2018-09-10T13:56:03.232Z,2.37
2018-09-10T13:58:36.814Z,2.10
2018-09-10T14:01:10.852Z,2.23
2018-09-10T14:03:46.012Z,2.20
2018-09-10T14:06:17.765Z,2.60
2018-09-10T14:08:47.096Z,1.93
2018-09-10T14:11:16.507Z,2.20
2018-09-10T14:13:45.897Z,1.67
2018-09-10T14:16:15.638Z,1.90
2018-09-10T14:18:45.024Z,2.17
2018-09-10T14:21:14.492Z,2.13
2018-09-10T14:23:43.745Z,2.57
2018-09-10T14:26:13.089Z,1.83
2018-09-10T14:28:42.667Z,1.93
2018-09-10T14:31:12.108Z,2.33
2018-09-10T14:33:41.401Z,1.83
2018-09-10T14:36:11.057Z,2.43
2018-09-10T14:38:40.371Z,2.40
2018-09-10T14:41:12.535Z,2.70
2018-09-10T14:43:42.187Z,1.90
2018-09-10T14:46:11.547Z,2.03
2018-09-10T14:48:40.818Z,2.70
2018-09-10T14:51:10.333Z,1.97
2018-09-10T14:53:39.706Z,2.93
2018-09-10T14:56:09.677Z,2.27
2018-09-10T14:58:39.831Z,2.00
2018-09-10T15:01:09.158Z,2.00
2018-09-10T15:03:39.582Z,1.87
2018-09-10T15:06:09.119Z,2.07
2018-09-10T15:08:38.494Z,2.00
2018-09-10T15:11:08.426Z,2.20
2018-09-10T15:13:40.773Z,2.80
2018-09-10T15:16:10.204Z,2.30
2018-09-10T15:18:40.022Z,2.00
2018-09-10T15:21:09.501Z,2.47
2018-09-10T15:23:39.097Z,1.60
2018-09-10T15:26:08.659Z,2.07
2018-09-10T15:28:38.031Z,1.97
2018-09-10T15:31:07.651Z,2.47
2018-09-10T15:33:37.277Z,2.40
2018-09-10T15:36:06.758Z,2.17
2018-09-10T15:38:36.143Z,1.70
2018-09-10T15:41:07.869Z,1.73
2018-09-10T15:43:38.370Z,1.97
2018-09-10T15:46:07.930Z,1.90
2018-09-10T15:48:37.647Z,2.40
2018-09-10T15:51:07.097Z,1.97
2018-09-10T15:53:36.839Z,2.30
2018-09-10T15:56:06.249Z,1.80
2018-09-10T15:58:35.706Z,2.37
2018-09-10T16:01:05.206Z,1.73
2018-09-10T16:03:35.784Z,1.80
2018-09-10T16:06:05.250Z,2.03
2018-09-10T16:08:35.095Z,1.30
2018-09-10T16:11:04.652Z,1.80
2018-09-10T16:13:34.035Z,1.73
2018-09-10T16:16:03.400Z,1.20
2018-09-10T16:18:32.891Z,2.80
2018-09-10T16:21:02.320Z,1.70
2018-09-10T16:23:31.706Z,1.90
2018-09-10T16:26:00.984Z,1.60
2018-09-10T16:28:30.567Z,2.63
2018-09-10T16:30:59.993Z,2.03
2018-09-10T16:33:30.153Z,1.87
2018-09-10T16:35:59.863Z,1.77
2018-09-10T16:38:29.249Z,1.93
2018-09-10T16:40:58.853Z,2.07
2018-09-10T16:43:28.375Z,2.23
2018-09-10T16:45:57.776Z,3.27
2018-09-10T16:48:27.486Z,1.80
2018-09-10T16:50:56.922Z,2.23
2018-09-10T16:53:26.487Z,2.00
2018-09-10T16:55:56.634Z,2.73
2018-09-10T16:58:26.252Z,2.37
2018-09-10T17:00:55.808Z,2.23
2018-09-10T17:03:25.407Z,1.57
2018-09-10T17:05:55.132Z,1.90
2018-09-10T17:08:24.754Z,1.73
2018-09-10T17:10:54.953Z,2.20
2018-09-10T17:13:24.891Z,1.57
2018-09-10T17:15:58.907Z,2.20
2018-09-10T17:18:33.569Z,2.27
2018-09-10T17:21:03.180Z,1.93
2018-09-10T17:23:35.431Z,2.20
2018-09-10T17:26:05.099Z,2.23
2018-09-10T17:28:35.098Z,1.70
2018-09-10T17:31:04.788Z,2.17
2018-09-10T17:33:35.458Z,1.73
2018-09-10T17:36:04.848Z,2.03
2018-09-10T17:38:34.419Z,2.27
2018-09-10T17:41:04.463Z,2.17
2018-09-10T17:43:34.312Z,1.77
2018-09-10T17:46:03.734Z,2.40
2018-09-10T17:48:33.205Z,2.70
2018-09-10T17:58:09.034Z,1.90
2018-09-10T18:00:40.531Z,3.27
2018-09-10T18:03:11.752Z,2.70
2018-09-10T18:05:41.770Z,4.03
2018-09-10T18:08:11.375Z,3.43
2018-09-10T18:10:42.071Z,2.80
2018-09-10T18:13:13.351Z,2.93
2018-09-10T18:15:44.086Z,2.23
2018-09-10T18:18:43.863Z,2.47
2018-09-10T18:21:35.597Z,2.00
2018-09-10T18:24:07.110Z,2.17
2018-09-10T18:26:38.172Z,2.57
2018-09-10T18:29:14.235Z,3.90
2018-09-10T18:31:46.360Z,2.87
2018-09-10T18:34:16.061Z,8.43
2018-09-10T18:36:45.854Z,3.23
2018-09-10T18:39:18.735Z,3.20
2018-09-10T18:41:55.723Z,11.90
2018-09-10T18:44:33.693Z,5.10
2018-09-10T18:47:04.866Z,2.70
2018-09-10T18:49:34.705Z,3.90
2018-09-10T18:52:04.421Z,2.57
2018-09-10T18:57:16.437Z,2.77
2018-09-10T18:59:45.847Z,2.70
2018-09-10T19:02:15.329Z,4.07
2018-09-10T19:04:44.932Z,3.90
2018-09-10T19:07:14.285Z,4.00
2018-09-10T19:09:44.977Z,2.57
2018-09-10T19:12:14.689Z,2.57
2018-09-10T19:14:44.111Z,2.50
2018-09-10T19:17:13.454Z,2.50
2018-09-10T19:19:42.970Z,3.00
2018-09-10T19:22:13.035Z,2.20
2018-09-10T19:24:43.177Z,2.03
2018-09-10T19:27:13.419Z,3.17
2018-09-10T19:29:44.240Z,3.13
2018-09-10T19:32:15.793Z,2.90
2018-09-10T19:34:45.249Z,2.43
2018-09-10T19:39:57.697Z,2.50
2018-09-10T19:42:29.250Z,4.30
2018-09-10T19:44:59.620Z,4.60
2018-09-10T19:47:29.387Z,4.20
2018-09-10T19:50:01.014Z,2.53
2018-09-10T19:52:30.491Z,3.80
2018-09-10T19:55:00.997Z,3.23
2018-09-10T19:57:31.298Z,4.17
2018-09-10T20:00:00.881Z,3.43
2018-09-10T20:02:30.758Z,4.10
2018-09-10T20:05:01.890Z,5.17
2018-09-10T20:07:31.517Z,2.93
2018-09-10T20:10:02.087Z,4.67
2018-09-10T20:12:32.206Z,3.30
2018-09-10T20:15:01.517Z,3.00
2018-09-10T20:17:31.913Z,3.60
2018-09-10T20:20:02.218Z,4.10
2018-09-10T20:22:31.572Z,3.97
2018-09-10T20:25:01.148Z,3.57
2018-09-10T20:27:30.745Z,3.30
2018-09-10T20:30:00.393Z,3.10
2018-09-10T20:32:30.062Z,2.93
2018-09-10T20:34:59.950Z,2.80
2018-09-10T20:37:29.550Z,5.60
2018-09-10T20:39:59.728Z,3.20
2018-09-10T20:42:30.525Z,5.30
2018-09-10T20:45:01.603Z,3.83
2018-09-10T20:47:31.365Z,4.97
2018-09-10T20:50:01.669Z,3.10
2018-09-10T20:52:31.590Z,3.20
2018-09-10T20:55:01.150Z,3.80
2018-09-10T20:57:30.714Z,2.57
2018-09-10T21:00:00.232Z,2.90
2018-09-10T21:02:29.905Z,2.97
2018-09-10T21:05:01.000Z,5.17
2018-09-10T21:07:30.461Z,2.97
2018-09-10T21:10:00.235Z,2.87
2018-09-10T21:12:29.862Z,4.20
2018-09-10T21:14:59.998Z,3.73
2018-09-10T21:17:29.537Z,2.73
2018-09-10T21:20:01.603Z,3.43
2018-09-10T21:22:31.192Z,3.20
2018-09-10T21:25:00.625Z,2.57
2018-09-10T21:27:30.923Z,3.80
2018-09-10T21:30:00.302Z,3.00
2018-09-10T21:32:29.968Z,3.10
2018-09-10T21:35:00.038Z,2.70
2018-09-10T21:37:29.613Z,3.93
2018-09-10T21:39:59.141Z,3.07
2018-09-10T21:42:28.877Z,2.87
2018-09-10T21:44:58.417Z,2.70
2018-09-10T21:47:28.192Z,3.10
2018-09-10T21:49:59.233Z,2.93
2018-09-10T21:52:29.160Z,4.33
2018-09-10T21:54:59.346Z,4.87
2018-09-10T21:57:29.042Z,3.37
2018-09-10T22:00:00.259Z,4.33
2018-09-10T22:02:30.339Z,2.63
2018-09-10T22:05:00.492Z,3.17
2018-09-10T22:07:30.568Z,3.60
2018-09-10T22:10:00.489Z,3.03
2018-09-10T22:12:30.098Z,3.30
2018-09-10T22:14:59.901Z,3.73
2018-09-10T22:17:30.503Z,2.87
2018-09-10T22:20:00.280Z,3.23
2018-09-10T22:22:30.124Z,2.63
2018-09-10T22:24:59.805Z,2.83
2018-09-10T22:27:29.538Z,2.90
2018-09-10T22:29:59.057Z,3.03
2018-09-10T22:32:29.422Z,2.77
2018-09-10T22:34:58.950Z,3.13
2018-09-10T22:37:28.476Z,3.13
2018-09-10T22:40:02.402Z,2.90
2018-09-10T22:42:35.018Z,3.73
2018-09-10T22:45:09.626Z,3.37
2018-09-10T22:47:42.915Z,4.17
2018-09-10T22:50:15.442Z,4.27
2018-09-10T22:52:48.998Z,2.30
2018-09-10T22:55:22.304Z,3.70
2018-09-10T22:57:57.011Z,2.30
2018-09-10T23:00:29.666Z,2.33
2018-09-10T23:03:01.295Z,2.70
2018-09-10T23:05:34.980Z,2.20
2018-09-10T23:08:05.096Z,2.80
2018-09-10T23:10:38.124Z,2.07
2018-09-10T23:13:12.561Z,3.33
2018-09-10T23:15:43.933Z,3.17
2018-09-10T23:18:17.400Z,2.90
2018-09-10T23:20:51.243Z,2.27
2018-09-10T23:23:25.904Z,2.97
2018-09-10T23:25:58.319Z,1.80
2018-09-10T23:28:34.579Z,2.80
2018-09-10T23:31:10.161Z,2.70
2018-09-10T23:33:44.065Z,2.77
2018-09-10T23:36:19.976Z,3.07
2018-09-10T23:38:57.159Z,2.33
2018-09-10T23:41:32.521Z,2.80
2018-09-10T23:44:04.473Z,3.00
2018-09-10T23:46:34.121Z,2.90
2018-09-10T23:49:07.977Z,2.70
2018-09-10T23:51:44.273Z,3.30
2018-09-10T23:54:16.593Z,4.17
2018-09-10T23:56:51.095Z,2.40
2018-09-10T23:59:24.567Z,2.70
